Time;durP1;ratioP1;P1;durP2;ratioP2;P2;SDS_P1;SDS_P2;PMS_P1;PMS_P2;Temp;Humidity;BMP_temperature;BMP_pressure;BME280_temperature;BME280_humidity;BME280_pressure;Samples;Min_cycle;Max_cycle;Signal;HPM_P1;HPM_P2
2022/12/28 00:02:17;;;;;;;5.88;5.18;;;2.70;99.90;;;;;;6058134;23;20195;-77
2022/12/28 00:04:44;;;;;;;7.88;6.28;;;2.80;99.90;;;;;;6064594;23;20209;-77
2022/12/28 00:07:12;;;;;;;5.43;4.93;;;2.80;99.90;;;;;;6086686;23;20201;-77
2022/12/28 00:09:40;;;;;;;6.60;5.50;;;2.90;99.90;;;;;;6086129;23;20223;-78
2022/12/28 00:12:07;;;;;;;5.65;5.10;;;2.90;99.90;;;;;;6135515;23;20288;-77
2022/12/28 00:14:34;;;;;;;8.10;5.22;;;2.90;99.90;;;;;;6127471;23;20182;-78
2022/12/28 00:17:03;;;;;;;8.73;5.18;;;2.90;99.90;;;;;;6094176;23;20296;-77
2022/12/28 00:19:30;;;;;;;5.70;5.20;;;2.80;99.90;;;;;;6120311;22;20290;-77
2022/12/28 00:21:57;;;;;;;8.18;5.10;;;2.80;99.90;;;;;;6103713;23;20198;-77
2022/12/28 00:24:26;;;;;;;4.80;4.30;;;2.90;99.90;;;;;;6102546;23;20203;-77
2022/12/28 00:26:55;;;;;;;5.72;5.10;;;2.90;99.90;;;;;;6077396;23;20581;-77
2022/12/28 00:29:23;;;;;;;5.32;4.80;;;2.90;99.90;;;;;;6102862;23;20222;-77
2022/12/28 00:31:50;;;;;;;6.40;4.75;;;2.90;99.90;;;;;;6101003;23;20198;-77
2022/12/28 00:34:19;;;;;;;5.32;4.82;;;3.00;99.90;;;;;;6090617;23;20218;-77
2022/12/28 00:36:46;;;;;;;5.95;4.90;;;3.00;99.90;;;;;;6101630;23;20219;-77
2022/12/28 00:39:13;;;;;;;5.35;4.70;;;2.90;99.90;;;;;;6051010;23;20217;-77
2022/12/28 00:41:41;;;;;;;6.80;5.22;;;2.90;99.90;;;;;;6101886;23;20278;-77
2022/12/28 00:44:08;;;;;;;5.45;4.95;;;2.90;99.90;;;;;;6069476;23;20253;-77
2022/12/28 00:46:36;;;;;;;5.63;4.72;;;2.90;99.90;;;;;;6068356;23;20274;-77
2022/12/28 00:49:04;;;;;;;6.10;4.60;;;3.00;99.90;;;;;;6065688;23;20196;-77
2022/12/28 00:51:32;;;;;;;6.13;4.35;;;3.00;99.90;;;;;;6052649;23;20228;-77
2022/12/28 00:53:59;;;;;;;4.55;4.15;;;3.10;99.90;;;;;;6084304;23;20235;-76
2022/12/28 00:56:26;;;;;;;4.38;3.67;;;3.20;99.90;;;;;;6108397;23;20229;-77
2022/12/28 00:58:56;;;;;;;4.75;4.28;;;3.20;99.90;;;;;;6110651;23;20196;-77
2022/12/28 01:01:24;;;;;;;8.20;4.32;;;3.30;99.90;;;;;;6091823;23;20253;-77
2022/12/28 01:03:51;;;;;;;4.20;3.80;;;3.20;99.90;;;;;;6100398;23;20590;-76
2022/12/28 01:06:20;;;;;;;5.22;4.82;;;3.20;99.90;;;;;;6097471;23;20190;-77
2022/12/28 01:08:49;;;;;;;4.10;3.70;;;3.20;99.90;;;;;;6097968;23;20231;-77
2022/12/28 01:11:19;;;;;;;5.18;4.10;;;3.20;99.90;;;;;;6097232;23;20666;-76
2022/12/28 01:13:46;;;;;;;5.90;4.82;;;3.20;99.90;;;;;;6100181;23;20199;-77
2022/12/28 01:16:16;;;;;;;5.80;4.55;;;3.20;99.90;;;;;;6051000;23;20408;-76
2022/12/28 01:18:43;;;;;;;6.68;4.82;;;3.20;99.90;;;;;;6087312;23;20229;-77
2022/12/28 01:21:13;;;;;;;6.15;5.10;;;3.20;99.90;;;;;;6078226;23;20192;-77
2022/12/28 01:23:41;;;;;;;4.82;4.43;;;3.20;99.90;;;;;;6099735;23;20210;-77
2022/12/28 01:26:09;;;;;;;5.10;4.60;;;3.20;99.90;;;;;;6079507;23;20201;-77
2022/12/28 01:28:36;;;;;;;6.03;4.45;;;3.20;99.90;;;;;;6106117;23;20313;-77
2022/12/28 01:31:05;;;;;;;4.80;4.30;;;3.20;99.90;;;;;;6102991;23;20205;-77
2022/12/28 01:33:32;;;;;;;4.45;4.05;;;3.20;99.90;;;;;;6077038;23;20274;-77
2022/12/28 01:36:05;;;;;;;5.53;5.00;;;3.30;99.90;;;;;;6099493;23;20254;-77
2022/12/28 01:38:33;;;;;;;7.00;5.00;;;3.30;99.90;;;;;;6068466;23;20212;-77
2022/12/28 01:41:00;;;;;;;7.00;4.28;;;3.30;99.90;;;;;;6094235;23;20251;-77
2022/12/28 01:43:42;;;;;;;5.00;4.60;;;3.30;99.90;;;;;;6098293;23;20528;-77
2022/12/28 01:46:12;;;;;;;4.40;4.00;;;3.30;99.90;;;;;;6098639;23;20198;-77
2022/12/28 01:48:43;;;;;;;5.53;4.97;;;3.30;99.90;;;;;;6101176;23;20240;-77
2022/12/28 01:51:11;;;;;;;5.00;4.22;;;3.30;99.90;;;;;;6093713;23;20199;-77
2022/12/28 01:53:38;;;;;;;4.75;4.30;;;3.30;99.90;;;;;;6099727;23;20207;-77
2022/12/28 01:56:06;;;;;;;5.45;4.30;;;3.30;99.90;;;;;;6084087;23;20220;-77
2022/12/28 01:58:35;;;;;;;5.13;3.92;;;3.30;99.90;;;;;;6075265;23;20202;-77
2022/12/28 02:01:04;;;;;;;5.95;4.78;;;3.30;99.90;;;;;;6098785;23;20200;-77
2022/12/28 02:03:34;;;;;;;5.00;4.50;;;3.30;99.90;;;;;;6098121;23;20199;-77
2022/12/28 02:06:06;;;;;;;5.03;4.57;;;3.40;99.90;;;;;;6098261;23;20205;-77
2022/12/28 02:08:40;;;;;;;4.88;4.47;;;3.40;99.90;;;;;;6098841;23;20195;-77
2022/12/28 02:11:08;;;;;;;4.90;4.40;;;3.40;99.90;;;;;;6070782;23;20218;-77
2022/12/28 02:13:35;;;;;;;5.22;4.78;;;3.40;99.90;;;;;;6071864;23;20515;-77
2022/12/28 02:16:06;;;;;;;5.25;4.80;;;3.40;99.90;;;;;;6099653;23;20524;-77
2022/12/28 02:18:33;;;;;;;5.47;4.97;;;3.40;99.90;;;;;;6097833;23;20291;-77
2022/12/28 02:21:18;;;;;;;6.28;4.85;;;3.40;99.90;;;;;;6096656;23;20245;-77
2022/12/28 02:24:01;;;;;;;5.50;5.00;;;3.30;99.90;;;;;;6093034;23;20205;-77
2022/12/28 02:26:53;;;;;;;5.45;4.95;;;3.40;99.90;;;;;;6091460;23;20322;-76
2022/12/28 02:29:50;;;;;;;4.80;4.30;;;3.40;99.90;;;;;;6098906;23;20238;-77
2022/12/28 02:32:29;;;;;;;5.25;4.75;;;3.40;99.90;;;;;;6097813;23;20216;-76
2022/12/28 02:35:05;;;;;;;5.80;5.30;;;3.40;99.90;;;;;;6085526;23;20275;-77
2022/12/28 02:37:36;;;;;;;7.03;4.50;;;3.40;99.90;;;;;;6089917;23;20249;-77
2022/12/28 02:40:08;;;;;;;4.85;4.45;;;3.60;99.90;;;;;;6071432;23;20199;-77
2022/12/28 02:42:36;;;;;;;5.30;4.80;;;3.40;99.90;;;;;;6063510;23;20200;-77
2022/12/28 02:50:46;;;;;;;5.40;4.50;;;3.50;99.90;;;;;;6024387;23;20720;-77
2022/12/28 02:53:28;;;;;;;5.20;4.70;;;3.40;99.90;;;;;;6095376;23;21360;-76
2022/12/28 02:56:09;;;;;;;5.75;4.55;;;3.40;99.90;;;;;;6088823;23;20196;-77
2022/12/28 02:58:54;;;;;;;6.78;4.38;;;3.50;99.90;;;;;;6098358;23;20266;-77
2022/12/28 03:01:39;;;;;;;5.93;4.60;;;3.50;99.90;;;;;;6096949;23;20195;-77
2022/12/28 03:04:13;;;;;;;4.85;4.30;;;3.50;99.90;;;;;;6093611;23;20250;-76
2022/12/28 03:09:40;;;;;;;4.32;3.92;;;3.50;99.90;;;;;;6097727;23;20230;-77
2022/12/28 03:12:12;;;;;;;4.30;3.90;;;3.50;99.90;;;;;;6085175;23;20221;-77
2022/12/28 03:14:46;;;;;;;4.22;3.78;;;3.50;99.90;;;;;;6097771;23;20595;-77
2022/12/28 03:31:23;;;;;;;4.30;3.70;;;3.80;99.90;;;;;;6105242;23;20188;-77
2022/12/28 03:34:05;;;;;;;3.22;2.92;;;3.90;99.90;;;;;;6105467;23;20230;-77
2022/12/28 03:36:42;;;;;;;3.08;2.78;;;3.90;99.90;;;;;;6080212;23;20196;-77
2022/12/28 03:39:19;;;;;;;3.78;3.40;;;3.90;99.90;;;;;;6099272;23;20272;-77
2022/12/28 03:44:39;;;;;;;3.35;3.05;;;4.00;99.90;;;;;;6072187;23;20239;-76
2022/12/28 03:47:10;;;;;;;3.55;3.17;;;4.00;99.90;;;;;;6097223;23;20192;-76
2022/12/28 03:49:39;;;;;;;3.40;3.10;;;4.00;99.90;;;;;;6096822;23;20216;-77
2022/12/28 03:52:08;;;;;;;4.80;3.90;;;4.00;99.90;;;;;;6098183;23;20316;-77
2022/12/28 03:54:35;;;;;;;3.45;3.15;;;4.00;99.90;;;;;;6096943;23;20615;-76
2022/12/28 03:57:03;;;;;;;3.28;2.97;;;4.00;99.90;;;;;;6098376;23;20235;-77
2022/12/28 03:59:29;;;;;;;3.30;3.00;;;4.00;99.90;;;;;;6097606;23;20196;-76
2022/12/28 04:01:57;;;;;;;3.25;3.05;;;4.00;99.90;;;;;;6096802;23;20207;-76
2022/12/28 04:04:24;;;;;;;4.20;3.40;;;4.00;99.90;;;;;;6081271;23;20244;-76
2022/12/28 04:06:53;;;;;;;4.32;2.95;;;4.00;99.90;;;;;;6071113;23;20245;-76
2022/12/28 04:09:21;;;;;;;3.70;3.35;;;4.00;99.90;;;;;;6069895;23;20196;-76
2022/12/28 04:11:48;;;;;;;3.03;2.83;;;4.10;99.90;;;;;;6083298;23;20268;-76
2022/12/28 04:14:15;;;;;;;4.30;2.80;;;4.10;99.90;;;;;;6089799;23;20268;-76
2022/12/28 04:16:42;;;;;;;3.33;3.03;;;4.10;99.90;;;;;;6096574;23;20234;-77
2022/12/28 04:19:09;;;;;;;3.47;3.13;;;4.10;99.90;;;;;;6097629;23;20223;-77
2022/12/28 04:21:36;;;;;;;3.88;2.60;;;4.20;99.90;;;;;;6099119;23;20203;-77
2022/12/28 04:24:06;;;;;;;3.25;2.95;;;4.20;99.90;;;;;;6100564;23;20215;-77
2022/12/28 04:26:33;;;;;;;3.08;2.78;;;4.20;99.90;;;;;;6099469;23;20243;-77
2022/12/28 04:29:01;;;;;;;4.13;3.10;;;4.20;99.90;;;;;;6086598;23;20192;-77
2022/12/28 04:31:29;;;;;;;3.53;2.95;;;4.20;99.90;;;;;;6071472;23;20206;-77
2022/12/28 04:33:57;;;;;;;3.45;3.03;;;4.20;99.90;;;;;;6088020;23;20227;-77
2022/12/28 04:36:25;;;;;;;3.00;2.70;;;4.30;99.90;;;;;;6055954;23;20251;-76
2022/12/28 04:38:52;;;;;;;3.33;2.78;;;4.30;99.90;;;;;;6096673;23;20295;-77
2022/12/28 04:41:21;;;;;;;6.00;2.70;;;4.30;99.90;;;;;;6095677;23;20192;-76
2022/12/28 04:43:48;;;;;;;3.35;2.67;;;4.40;99.90;;;;;;6096575;23;20242;-76
2022/12/28 04:46:16;;;;;;;2.90;2.60;;;4.40;99.90;;;;;;6095526;23;20240;-76
2022/12/28 04:48:43;;;;;;;3.88;2.85;;;4.40;99.90;;;;;;6093090;23;20651;-76
2022/12/28 04:51:16;;;;;;;2.70;2.50;;;4.40;99.90;;;;;;6084445;23;20223;-76
2022/12/28 04:53:44;;;;;;;2.60;2.40;;;4.40;99.90;;;;;;6094771;23;20561;-76
2022/12/28 04:56:13;;;;;;;3.55;2.50;;;4.50;99.90;;;;;;6098155;23;20196;-76
2022/12/28 04:58:41;;;;;;;4.70;2.42;;;4.50;99.90;;;;;;6097640;23;20634;-76
2022/12/28 05:01:11;;;;;;;3.00;2.00;;;4.50;99.90;;;;;;6097206;23;20648;-76
2022/12/28 05:03:39;;;;;;;2.25;1.63;;;4.60;99.90;;;;;;6097975;23;20533;-76
2022/12/28 05:06:10;;;;;;;1.58;1.48;;;4.70;99.90;;;;;;6096205;23;20326;-76
2022/12/28 05:08:39;;;;;;;2.75;2.10;;;4.90;99.90;;;;;;6072879;23;20215;-77
2022/12/28 05:11:09;;;;;;;1.13;1.00;;;4.90;99.90;;;;;;6098526;23;20633;-76
2022/12/28 05:13:36;;;;;;;1.80;1.45;;;5.10;99.90;;;;;;6099080;23;20626;-76
2022/12/28 05:16:07;;;;;;;2.00;1.27;;;5.20;99.90;;;;;;6097399;23;20227;-76
2022/12/28 05:18:34;;;;;;;1.92;1.23;;;5.30;99.90;;;;;;6092243;23;20216;-76
2022/12/28 05:21:02;;;;;;;1.40;1.30;;;5.30;99.90;;;;;;6097467;23;20207;-76
2022/12/28 05:23:30;;;;;;;1.42;1.30;;;5.40;99.90;;;;;;6095441;23;20280;-76
2022/12/28 05:25:57;;;;;;;3.75;1.52;;;5.30;99.90;;;;;;6097668;23;20726;-76
2022/12/28 05:28:26;;;;;;;2.25;1.48;;;5.30;99.90;;;;;;6096486;23;20256;-76
2022/12/28 05:30:59;;;;;;;2.47;1.50;;;5.30;99.90;;;;;;6096894;23;20196;-76
2022/12/28 05:33:28;;;;;;;2.10;1.25;;;5.20;99.90;;;;;;6073582;23;20203;-76
2022/12/28 05:35:56;;;;;;;1.40;1.30;;;5.30;99.90;;;;;;6095788;23;20252;-76
2022/12/28 05:38:23;;;;;;;2.20;1.30;;;5.30;99.90;;;;;;6062303;23;20269;-77
2022/12/28 05:40:50;;;;;;;1.10;1.00;;;5.30;99.90;;;;;;6097037;23;20200;-76
2022/12/28 05:43:17;;;;;;;1.60;0.93;;;5.40;99.90;;;;;;6097923;23;20196;-76
2022/12/28 05:45:44;;;;;;;1.58;1.10;;;5.50;99.90;;;;;;6096114;23;20295;-77
2022/12/28 05:48:11;;;;;;;2.97;1.20;;;5.50;99.90;;;;;;6097139;23;20211;-77
2022/12/28 05:50:40;;;;;;;1.20;1.10;;;5.60;99.90;;;;;;6088522;23;21179;-76
2022/12/28 05:53:07;;;;;;;1.75;1.00;;;5.60;99.90;;;;;;6071682;23;20218;-76
2022/12/28 05:55:34;;;;;;;1.88;0.98;;;5.60;99.90;;;;;;6097637;23;20812;-77
2022/12/28 05:58:02;;;;;;;2.03;1.20;;;5.60;99.90;;;;;;6096619;23;20212;-77
2022/12/28 06:00:29;;;;;;;1.85;1.20;;;5.70;99.90;;;;;;6096646;23;20215;-77
2022/12/28 06:02:56;;;;;;;2.42;1.10;;;5.70;99.90;;;;;;6096961;23;20196;-76
2022/12/28 06:05:23;;;;;;;1.75;1.20;;;5.70;99.90;;;;;;6098346;23;20608;-77
2022/12/28 06:07:53;;;;;;;2.38;1.10;;;5.80;99.90;;;;;;6071949;23;20679;-76
2022/12/28 06:10:20;;;;;;;4.55;1.27;;;5.90;99.90;;;;;;6071829;23;20230;-77
2022/12/28 06:12:48;;;;;;;2.55;1.20;;;5.90;99.90;;;;;;6062776;23;20196;-76
2022/12/28 06:15:15;;;;;;;0.90;0.90;;;5.90;99.90;;;;;;6073271;23;20385;-77
2022/12/28 06:17:42;;;;;;;1.70;1.15;;;5.90;99.90;;;;;;6095396;23;20222;-76
2022/12/28 06:20:10;;;;;;;4.30;1.10;;;5.90;99.90;;;;;;6096604;23;20279;-76
2022/12/28 06:22:37;;;;;;;1.98;1.10;;;5.90;99.90;;;;;;6096783;23;20267;-76
2022/12/28 06:25:07;;;;;;;1.00;0.90;;;5.90;99.90;;;;;;6094079;23;20196;-76
2022/12/28 06:27:35;;;;;;;1.50;1.10;;;5.90;99.90;;;;;;6097471;23;20252;-76
2022/12/28 06:30:02;;;;;;;1.30;1.00;;;5.80;99.90;;;;;;6047199;23;20204;-76
2022/12/28 06:32:29;;;;;;;2.42;1.23;;;5.80;99.90;;;;;;6060659;23;20227;-76
2022/12/28 06:34:56;;;;;;;1.90;1.08;;;5.80;99.90;;;;;;6094133;23;20207;-76
2022/12/28 06:37:23;;;;;;;1.50;1.15;;;5.80;99.90;;;;;;6097926;23;20196;-76
2022/12/28 06:39:50;;;;;;;1.13;1.02;;;5.80;99.90;;;;;;6096542;23;20215;-76
2022/12/28 06:42:20;;;;;;;1.65;1.20;;;5.90;99.90;;;;;;6069915;23;20638;-76
2022/12/28 06:44:47;;;;;;;1.90;1.30;;;5.90;99.90;;;;;;6093769;23;20250;-76
2022/12/28 06:47:14;;;;;;;1.80;1.10;;;5.90;99.90;;;;;;6094570;23;20191;-76
2022/12/28 06:49:42;;;;;;;2.78;1.08;;;5.90;99.90;;;;;;6095788;23;20254;-76
2022/12/28 06:52:09;;;;;;;4.78;1.45;;;5.90;99.90;;;;;;6095624;23;20192;-76
2022/12/28 06:54:36;;;;;;;1.25;1.10;;;5.90;99.90;;;;;;6093304;23;20254;-76
2022/12/28 06:57:04;;;;;;;2.67;1.58;;;5.90;99.90;;;;;;6090488;23;20271;-76
2022/12/28 06:59:32;;;;;;;1.55;1.45;;;5.90;99.90;;;;;;6090258;23;20269;-77
2022/12/28 07:01:59;;;;;;;2.25;1.52;;;5.90;99.90;;;;;;6105964;23;20248;-77
2022/12/28 07:04:27;;;;;;;1.88;1.77;;;5.90;99.90;;;;;;6083012;23;20203;-77
2022/12/28 07:06:54;;;;;;;3.10;1.50;;;5.90;99.90;;;;;;6081390;23;20196;-77
2022/12/28 07:09:21;;;;;;;2.50;1.60;;;5.80;99.90;;;;;;6108608;23;20192;-77
2022/12/28 07:11:50;;;;;;;2.13;1.50;;;5.80;99.90;;;;;;6106870;23;20195;-76
2022/12/28 07:14:20;;;;;;;2.45;1.33;;;5.80;99.90;;;;;;6095087;23;20196;-76
2022/12/28 07:16:48;;;;;;;2.03;1.45;;;5.80;99.90;;;;;;6093560;23;20230;-76
2022/12/28 07:19:16;;;;;;;3.45;1.67;;;5.80;99.90;;;;;;6069602;23;20216;-77
2022/12/28 07:21:43;;;;;;;1.48;1.38;;;5.80;99.90;;;;;;6069482;23;20202;-75
2022/12/28 07:24:10;;;;;;;2.30;1.55;;;5.80;99.90;;;;;;6096297;23;20204;-76
2022/12/28 07:26:38;;;;;;;1.65;1.40;;;5.80;99.90;;;;;;6097061;23;20215;-76
2022/12/28 07:29:06;;;;;;;2.15;1.52;;;5.90;99.90;;;;;;6095258;23;20579;-76
2022/12/28 07:31:35;;;;;;;2.17;1.20;;;5.90;99.90;;;;;;6082440;23;20192;-76
2022/12/28 07:34:04;;;;;;;1.40;1.30;;;5.90;99.90;;;;;;6095120;23;20271;-76
2022/12/28 07:36:33;;;;;;;3.42;1.70;;;6.00;99.90;;;;;;6093818;23;20685;-76
2022/12/28 07:39:00;;;;;;;1.35;1.25;;;6.00;99.90;;;;;;6099556;23;20212;-77
2022/12/28 07:41:30;;;;;;;2.10;1.67;;;6.00;99.90;;;;;;6097328;23;20230;-77
2022/12/28 07:43:57;;;;;;;3.20;1.38;;;6.00;99.90;;;;;;6073902;23;20216;-76
2022/12/28 07:46:26;;;;;;;1.50;1.40;;;6.10;99.90;;;;;;6096186;23;20271;-77
2022/12/28 07:48:55;;;;;;;2.00;1.40;;;6.10;99.90;;;;;;6097823;23;20586;-76
2022/12/28 07:51:28;;;;;;;2.17;1.70;;;6.10;99.90;;;;;;6079043;23;20283;-76
2022/12/28 07:53:56;;;;;;;2.65;1.65;;;6.20;99.90;;;;;;6088691;23;20223;-76
2022/12/28 07:56:24;;;;;;;1.60;1.42;;;6.20;99.90;;;;;;6097404;23;20254;-76
2022/12/28 07:58:54;;;;;;;3.30;1.65;;;6.20;99.90;;;;;;6083834;23;20316;-76
2022/12/28 08:01:26;;;;;;;1.50;1.38;;;6.20;99.90;;;;;;6092191;23;20255;-77
2022/12/28 08:03:55;;;;;;;1.73;1.30;;;6.30;99.90;;;;;;6096853;23;20192;-76
2022/12/28 08:06:25;;;;;;;1.52;1.38;;;6.30;99.90;;;;;;6086115;23;20276;-76
2022/12/28 08:08:53;;;;;;;1.65;1.55;;;6.30;99.90;;;;;;6090751;23;20557;-76
2022/12/28 08:11:22;;;;;;;2.13;1.45;;;6.40;99.90;;;;;;6091286;23;20314;-76
2022/12/28 08:13:51;;;;;;;2.55;1.55;;;6.40;99.90;;;;;;6080529;23;20275;-76
2022/12/28 08:16:20;;;;;;;1.50;1.40;;;6.40;99.90;;;;;;6069164;23;20199;-76
2022/12/28 08:18:48;;;;;;;1.58;1.48;;;6.40;99.90;;;;;;6065917;23;20219;-76
2022/12/28 08:21:18;;;;;;;2.70;1.52;;;6.40;99.90;;;;;;6079385;23;20280;-76
2022/12/28 08:23:47;;;;;;;1.50;1.33;;;6.50;99.90;;;;;;6091338;23;20195;-76
2022/12/28 08:26:16;;;;;;;3.63;1.75;;;6.40;99.90;;;;;;6092646;23;20258;-76
2022/12/28 08:28:45;;;;;;;1.92;1.83;;;6.40;99.90;;;;;;6090942;23;20198;-76
2022/12/28 08:31:14;;;;;;;1.95;1.70;;;6.40;99.90;;;;;;6092686;23;20218;-76
2022/12/28 08:33:41;;;;;;;1.83;1.50;;;6.40;99.90;;;;;;6094765;23;20252;-76
2022/12/28 08:36:09;;;;;;;2.00;1.40;;;6.40;99.90;;;;;;6091159;23;20332;-75
2022/12/28 08:38:38;;;;;;;1.95;1.77;;;6.50;99.90;;;;;;6088670;23;20223;-76
2022/12/28 08:41:10;;;;;;;2.20;1.50;;;6.50;99.90;;;;;;6080541;23;20188;-76
2022/12/28 08:43:38;;;;;;;1.80;1.50;;;6.50;99.90;;;;;;6083451;23;20199;-75
2022/12/28 08:46:08;;;;;;;2.55;1.83;;;6.60;99.90;;;;;;6088079;23;20267;-73
2022/12/28 08:48:36;;;;;;;2.08;1.48;;;6.70;99.90;;;;;;6103261;23;20168;-78
2022/12/28 08:51:05;;;;;;;3.42;1.42;;;6.70;99.90;;;;;;6107763;23;20184;-77
2022/12/28 08:53:33;;;;;;;1.50;1.40;;;6.80;99.90;;;;;;6059960;23;20263;-80
2022/12/28 08:56:07;;;;;;;1.92;1.50;;;6.80;99.90;;;;;;6081521;23;20176;-80
2022/12/28 08:58:42;;;;;;;1.40;1.30;;;6.90;99.90;;;;;;6103240;23;20223;-81
2022/12/28 09:01:10;;;;;;;5.57;1.55;;;6.90;99.90;;;;;;6071818;23;20274;-77
2022/12/28 09:03:39;;;;;;;1.75;1.65;;;7.00;99.90;;;;;;6096286;23;20271;-77
2022/12/28 09:06:08;;;;;;;2.15;1.52;;;7.00;99.90;;;;;;6028411;23;20251;-78
2022/12/28 09:08:36;;;;;;;2.50;1.67;;;7.10;99.90;;;;;;6068580;23;20197;-77
2022/12/28 09:11:08;;;;;;;2.33;1.77;;;7.10;99.90;;;;;;6089766;23;20211;-77
2022/12/28 09:13:35;;;;;;;2.28;1.50;;;7.10;99.90;;;;;;6089115;23;20212;-77
2022/12/28 09:16:05;;;;;;;3.15;1.83;;;7.20;99.90;;;;;;6086977;23;20463;-78
2022/12/28 09:18:33;;;;;;;3.60;1.48;;;7.20;99.90;;;;;;6083127;23;20234;-77
2022/12/28 09:21:05;;;;;;;1.55;1.30;;;7.30;99.90;;;;;;6089866;23;20192;-76
2022/12/28 09:23:32;;;;;;;4.43;1.45;;;7.30;99.90;;;;;;6086790;23;20279;-76
2022/12/28 09:26:04;;;;;;;1.98;1.50;;;7.30;99.90;;;;;;6089250;23;20197;-76
2022/12/28 09:28:32;;;;;;;3.20;2.17;;;7.40;99.90;;;;;;6089562;23;20199;-77
2022/12/28 09:31:03;;;;;;;1.52;1.40;;;7.40;99.90;;;;;;6089134;23;20192;-77
2022/12/28 09:36:16;;;;;;;1.60;1.20;;;7.40;99.90;;;;;;6084347;23;20220;-78
2022/12/28 09:38:43;;;;;;;1.52;1.42;;;7.60;99.90;;;;;;6096171;23;20217;-78
2022/12/28 09:41:12;;;;;;;2.63;1.40;;;7.70;99.90;;;;;;6096861;23;20215;-78
2022/12/28 09:43:43;;;;;;;1.77;1.30;;;7.80;99.90;;;;;;6074342;23;20257;-78
2022/12/28 09:46:11;;;;;;;1.50;1.40;;;8.00;99.90;;;;;;6074301;23;20268;-78
2022/12/28 09:48:41;;;;;;;3.10;1.67;;;8.10;99.90;;;;;;6104487;23;20190;-78
2022/12/28 09:51:09;;;;;;;1.20;1.10;;;8.30;99.90;;;;;;6054323;23;20205;-78
2022/12/28 09:53:36;;;;;;;2.30;1.40;;;8.50;99.90;;;;;;6101370;23;20290;-79
2022/12/28 09:56:15;;;;;;;1.88;1.10;;;8.70;99.90;;;;;;6098705;23;20211;-78
2022/12/28 09:58:45;;;;;;;2.15;1.55;;;8.90;99.90;;;;;;6092131;23;20597;-77
2022/12/28 10:01:17;;;;;;;3.85;1.48;;;8.90;99.90;;;;;;6087603;23;20184;-80
2022/12/28 10:03:46;;;;;;;2.55;1.48;;;9.10;99.90;;;;;;6105154;23;20208;-79
2022/12/28 10:06:15;;;;;;;1.40;1.13;;;9.20;99.90;;;;;;6093950;23;20245;-79
2022/12/28 10:08:45;;;;;;;1.30;1.15;;;9.30;99.90;;;;;;6105546;23;20211;-79
2022/12/28 10:11:17;;;;;;;2.28;1.25;;;9.40;99.90;;;;;;6104424;23;20239;-80
2022/12/28 10:13:45;;;;;;;1.33;1.23;;;9.50;99.90;;;;;;6064591;23;20259;-81
2022/12/28 10:16:18;;;;;;;2.10;1.60;;;9.50;99.90;;;;;;6108029;23;20191;-80
2022/12/28 10:18:46;;;;;;;1.70;1.50;;;9.50;99.90;;;;;;6080016;23;20282;-79
2022/12/28 10:21:17;;;;;;;2.85;1.10;;;9.50;99.90;;;;;;6111400;23;20188;-79
2022/12/28 10:23:45;;;;;;;2.15;1.52;;;9.50;99.90;;;;;;6081895;23;20199;-80
2022/12/28 10:26:17;;;;;;;1.80;1.33;;;9.50;99.90;;;;;;6061945;23;20192;-79
2022/12/28 10:28:50;;;;;;;2.85;1.50;;;9.50;99.90;;;;;;6098145;23;20222;-79
2022/12/28 10:31:31;;;;;;;1.95;1.10;;;9.50;99.90;;;;;;6093146;23;20199;-78
2022/12/28 10:33:58;;;;;;;1.63;1.42;;;9.50;99.90;;;;;;6086510;23;20610;-76
2022/12/28 10:36:27;;;;;;;2.45;1.25;;;9.50;99.90;;;;;;6096834;23;20192;-78
2022/12/28 10:38:55;;;;;;;3.92;1.55;;;9.50;99.90;;;;;;6098645;23;20247;-78
2022/12/28 10:41:36;;;;;;;2.17;1.30;;;9.40;99.90;;;;;;6083517;23;20199;-78
2022/12/28 10:44:20;;;;;;;1.02;0.93;;;9.40;99.90;;;;;;6078144;23;20200;-78
2022/12/28 10:46:53;;;;;;;1.50;1.13;;;9.40;99.90;;;;;;6058212;23;20684;-76
2022/12/28 10:49:31;;;;;;;2.63;1.50;;;9.40;99.90;;;;;;6079126;23;20259;-77
2022/12/28 10:52:26;;;;;;;1.65;1.05;;;9.40;99.90;;;;;;6086440;23;20279;-77
2022/12/28 10:54:54;;;;;;;2.08;1.10;;;9.50;99.90;;;;;;6083624;23;20614;-77
2022/12/28 10:57:29;;;;;;;1.25;1.10;;;9.60;99.90;;;;;;6083981;23;20195;-77
2022/12/28 11:00:19;;;;;;;1.20;0.90;;;9.70;99.90;;;;;;6087571;23;20239;-78
2022/12/28 11:02:47;;;;;;;1.25;0.90;;;9.80;99.90;;;;;;6093901;23;20503;-80
2022/12/28 11:05:23;;;;;;;0.80;0.80;;;9.80;99.90;;;;;;6054081;23;20495;-80
2022/12/28 11:08:04;;;;;;;1.05;0.80;;;9.80;99.90;;;;;;6083187;23;20245;-80
2022/12/28 11:10:31;;;;;;;2.60;1.20;;;9.80;99.90;;;;;;6064009;23;20564;-80
2022/12/28 11:13:20;;;;;;;1.05;0.82;;;9.90;99.90;;;;;;6091819;23;20212;-80
2022/12/28 11:15:49;;;;;;;1.33;1.00;;;10.10;99.90;;;;;;6095989;23;21020;-80
2022/12/28 11:18:18;;;;;;;0.80;0.70;;;10.30;99.90;;;;;;6087869;23;20274;-80
2022/12/28 11:20:48;;;;;;;1.30;0.82;;;10.70;99.90;;;;;;6091467;23;20224;-80
2022/12/28 11:23:19;;;;;;;1.30;0.70;;;11.20;99.90;;;;;;6084828;23;20244;-80
2022/12/28 11:25:47;;;;;;;1.30;1.00;;;11.60;99.90;;;;;;6076716;23;20587;-80
2022/12/28 11:28:18;;;;;;;1.08;0.80;;;11.70;99.90;;;;;;6057684;23;20503;-80
2022/12/28 11:30:45;;;;;;;1.33;0.95;;;11.70;99.90;;;;;;6087306;23;20247;-81
2022/12/28 11:33:28;;;;;;;1.00;0.70;;;11.60;99.90;;;;;;6067660;23;20242;-80
2022/12/28 11:35:56;;;;;;;3.45;1.00;;;11.40;99.90;;;;;;6065813;23;20222;-80
2022/12/28 11:38:40;;;;;;;1.50;0.90;;;11.20;99.90;;;;;;6100086;23;20517;-80
2022/12/28 11:41:09;;;;;;;1.02;0.80;;;11.00;99.90;;;;;;6085019;23;20200;-80
2022/12/28 11:43:52;;;;;;;1.38;1.13;;;10.90;99.90;;;;;;6061217;23;20204;-80
2022/12/28 11:46:40;;;;;;;1.10;1.00;;;10.80;99.90;;;;;;6058218;23;20262;-80
2022/12/28 11:49:34;;;;;;;2.10;1.20;;;10.80;99.90;;;;;;6091143;23;20195;-80
2022/12/28 11:52:34;;;;;;;1.60;1.10;;;10.70;99.90;;;;;;6064678;23;20248;-80
2022/12/28 11:55:23;;;;;;;1.80;0.95;;;10.70;99.90;;;;;;6092635;23;20192;-80
2022/12/28 11:57:51;;;;;;;1.10;1.00;;;10.50;99.90;;;;;;6103858;23;20193;-81
2022/12/28 12:00:41;;;;;;;2.53;1.35;;;10.50;99.90;;;;;;6100410;23;20204;-80
2022/12/28 12:03:09;;;;;;;1.90;0.80;;;10.60;99.90;;;;;;6048199;23;20690;-81
2022/12/28 12:05:52;;;;;;;1.77;0.90;;;10.50;99.90;;;;;;6084323;23;20215;-81
2022/12/28 12:08:38;;;;;;;1.33;0.82;;;10.50;99.90;;;;;;6085120;23;20238;-80
2022/12/28 12:11:30;;;;;;;1.20;0.70;;;10.40;99.90;;;;;;6069158;23;20215;-81
2022/12/28 12:14:01;;;;;;;2.97;1.10;;;10.30;99.90;;;;;;6039205;23;20192;-78
2022/12/28 12:16:35;;;;;;;1.20;1.10;;;10.30;99.90;;;;;;6090599;23;20375;-79
2022/12/28 12:19:05;;;;;;;1.58;1.00;;;10.20;99.90;;;;;;6087604;23;20267;-80
2022/12/28 12:21:37;;;;;;;1.08;0.90;;;10.20;99.90;;;;;;6087754;23;20203;-80
2022/12/28 12:24:19;;;;;;;1.33;1.00;;;10.10;99.90;;;;;;6057210;23;20203;-85
2022/12/28 12:26:51;;;;;;;1.45;0.93;;;10.10;99.90;;;;;;6079109;23;20275;-82
2022/12/28 12:29:44;;;;;;;1.23;0.90;;;10.00;99.90;;;;;;6071296;23;20219;-83
2022/12/28 12:32:19;;;;;;;1.98;1.08;;;10.00;99.90;;;;;;6097142;23;20261;-83
2022/12/28 12:34:51;;;;;;;1.00;0.90;;;10.20;99.90;;;;;;6100416;23;20198;-82
2022/12/28 12:37:36;;;;;;;1.20;0.80;;;10.00;99.90;;;;;;6093576;23;20188;-83
2022/12/28 12:40:31;;;;;;;2.17;1.20;;;10.00;99.90;;;;;;6083843;23;20215;-83
2022/12/28 12:43:17;;;;;;;3.20;1.13;;;10.00;99.90;;;;;;6056831;23;20745;-83
2022/12/28 12:45:55;;;;;;;1.83;0.98;;;10.00;99.90;;;;;;6082604;23;20211;-82
2022/12/28 12:48:40;;;;;;;1.17;0.80;;;10.10;99.90;;;;;;6077122;23;20270;-82
2022/12/28 12:51:22;;;;;;;1.63;0.90;;;10.20;99.90;;;;;;6078084;23;20534;-82
2022/12/28 12:54:07;;;;;;;1.00;0.90;;;10.10;99.90;;;;;;6078096;23;20217;-82
2022/12/28 12:56:43;;;;;;;0.80;0.80;;;10.10;99.90;;;;;;6077449;23;20673;-82
2022/12/28 12:59:31;;;;;;;1.00;0.90;;;10.10;99.90;;;;;;6053116;23;20664;-82
2022/12/28 13:02:18;;;;;;;1.30;1.20;;;10.10;99.90;;;;;;6080687;23;20201;-82
2022/12/28 13:04:46;;;;;;;1.27;1.00;;;10.10;99.90;;;;;;6080316;23;20184;-81
2022/12/28 13:07:19;;;;;;;1.55;1.00;;;10.20;99.90;;;;;;6084417;23;20194;-82
2022/12/28 13:09:50;;;;;;;1.35;1.20;;;10.20;99.90;;;;;;6055836;23;20202;-83
2022/12/28 13:12:19;;;;;;;1.70;1.35;;;10.20;99.90;;;;;;6080837;23;20272;-84
2022/12/28 13:14:49;;;;;;;1.00;0.90;;;10.20;99.90;;;;;;6060615;23;20183;-84
2022/12/28 13:17:20;;;;;;;1.83;1.10;;;10.20;99.90;;;;;;6081301;23;20195;-83
2022/12/28 13:19:48;;;;;;;1.15;1.05;;;10.10;99.90;;;;;;6086848;23;20199;-84
2022/12/28 13:22:27;;;;;;;2.75;1.50;;;10.10;99.90;;;;;;6080972;23;20186;-84
2022/12/28 13:24:57;;;;;;;1.88;1.33;;;10.10;99.90;;;;;;6051456;23;21041;-84
2022/12/28 13:27:31;;;;;;;1.70;1.13;;;10.10;99.90;;;;;;6080823;23;20206;-84
2022/12/28 13:29:58;;;;;;;2.95;1.10;;;10.10;99.90;;;;;;6087558;23;20196;-86
2022/12/28 13:32:27;;;;;;;2.70;1.40;;;10.10;99.90;;;;;;6074714;23;20184;-82
2022/12/28 13:34:54;;;;;;;0.90;0.80;;;10.00;99.90;;;;;;6102034;23;20581;-82
2022/12/28 13:37:22;;;;;;;2.70;1.20;;;10.00;99.90;;;;;;6101159;23;20226;-81
2022/12/28 13:40:21;;;;;;;1.88;1.20;;;10.00;99.90;;;;;;6106690;23;20180;-85
2022/12/28 13:42:55;;;;;;;1.65;1.55;;;9.90;99.90;;;;;;6001850;23;20200;-82
2022/12/28 13:45:23;;;;;;;1.30;1.20;;;9.90;99.90;;;;;;6076783;23;20329;-83